sensor_id;sensor_type;location;lat;lon;timestamp;P1;durP1;ratioP1;P2;durP2;ratioP2
14939;SDS011;11825;51.898;8.202;2023-10-19T00:10:11;9.57;;;8.57;;
14939;SDS011;11825;51.898;8.202;2023-10-19T00:20:58;11.77;;;9.70;;
14939;SDS011;11825;51.898;8.202;2023-10-19T00:26:32;11.40;;;8.63;;
14939;SDS011;11825;51.898;8.202;2023-10-19T00:31:34;11.40;;;9.93;;
14939;SDS011;11825;51.898;8.202;2023-10-19T00:36:43;11.60;;;10.30;;
14939;SDS011;11825;51.898;8.202;2023-10-19T00:41:49;13.97;;;9.33;;
14939;SDS011;11825;51.898;8.202;2023-10-19T00:46:59;13.47;;;10.83;;
14939;SDS011;11825;51.898;8.202;2023-10-19T00:52:24;14.07;;;9.23;;
14939;SDS011;11825;51.898;8.202;2023-10-19T00:57:29;12.47;;;10.33;;
14939;SDS011;11825;51.898;8.202;2023-10-19T01:02:44;11.47;;;9.77;;
14939;SDS011;11825;51.898;8.202;2023-10-19T01:07:48;15.30;;;10.33;;
14939;SDS011;11825;51.898;8.202;2023-10-19T01:12:58;12.13;;;9.37;;
14939;SDS011;11825;51.898;8.202;2023-10-19T01:18:01;11.90;;;9.67;;
14939;SDS011;11825;51.898;8.202;2023-10-19T01:23:04;13.20;;;10.43;;
14939;SDS011;11825;51.898;8.202;2023-10-19T01:28:08;13.00;;;10.50;;
14939;SDS011;11825;51.898;8.202;2023-10-19T01:33:10;12.83;;;10.70;;
14939;SDS011;11825;51.898;8.202;2023-10-19T01:38:18;14.53;;;12.10;;
14939;SDS011;11825;51.898;8.202;2023-10-19T01:43:20;13.83;;;11.23;;
14939;SDS011;11825;51.898;8.202;2023-10-19T01:48:22;12.67;;;10.87;;
14939;SDS011;11825;51.898;8.202;2023-10-19T02:31:52;12.70;;;11.50;;
14939;SDS011;11825;51.898;8.202;2023-10-19T02:36:56;14.40;;;10.77;;
14939;SDS011;11825;51.898;8.202;2023-10-19T02:42:00;14.47;;;10.60;;
14939;SDS011;11825;51.898;8.202;2023-10-19T02:47:03;10.93;;;9.70;;
14939;SDS011;11825;51.898;8.202;2023-10-19T02:52:28;12.80;;;11.37;;
14939;SDS011;11825;51.898;8.202;2023-10-19T02:57:30;11.47;;;9.97;;
14939;SDS011;11825;51.898;8.202;2023-10-19T03:02:38;11.57;;;10.47;;
14939;SDS011;11825;51.898;8.202;2023-10-19T03:07:44;13.00;;;10.70;;
14939;SDS011;11825;51.898;8.202;2023-10-19T03:12:48;12.90;;;10.73;;
14939;SDS011;11825;51.898;8.202;2023-10-19T03:17:53;11.47;;;9.83;;
14939;SDS011;11825;51.898;8.202;2023-10-19T03:22:55;13.47;;;10.23;;
14939;SDS011;11825;51.898;8.202;2023-10-19T03:28:02;11.83;;;9.30;;
14939;SDS011;11825;51.898;8.202;2023-10-19T03:33:09;12.20;;;11.00;;
14939;SDS011;11825;51.898;8.202;2023-10-19T03:38:13;10.40;;;9.30;;
14939;SDS011;11825;51.898;8.202;2023-10-19T03:43:19;11.43;;;9.17;;
14939;SDS011;11825;51.898;8.202;2023-10-19T03:48:23;14.77;;;9.70;;
14939;SDS011;11825;51.898;8.202;2023-10-19T03:53:28;9.93;;;8.87;;
14939;SDS011;11825;51.898;8.202;2023-10-19T03:58:39;10.00;;;9.00;;
14939;SDS011;11825;51.898;8.202;2023-10-19T04:03:44;13.03;;;8.77;;
14939;SDS011;11825;51.898;8.202;2023-10-19T04:08:57;9.90;;;8.87;;
14939;SDS011;11825;51.898;8.202;2023-10-19T04:14:02;9.60;;;8.57;;
14939;SDS011;11825;51.898;8.202;2023-10-19T04:19:17;9.13;;;8.23;;
14939;SDS011;11825;51.898;8.202;2023-10-19T04:24:19;10.97;;;8.87;;
14939;SDS011;11825;51.898;8.202;2023-10-19T04:29:21;9.20;;;8.20;;
14939;SDS011;11825;51.898;8.202;2023-10-19T04:34:39;9.17;;;7.80;;
14939;SDS011;11825;51.898;8.202;2023-10-19T04:39:41;9.83;;;8.83;;
14939;SDS011;11825;51.898;8.202;2023-10-19T04:44:43;12.60;;;10.10;;
14939;SDS011;11825;51.898;8.202;2023-10-19T04:50:13;10.47;;;9.37;;
14939;SDS011;11825;51.898;8.202;2023-10-19T04:55:15;8.20;;;7.40;;
14939;SDS011;11825;51.898;8.202;2023-10-19T05:00:17;10.63;;;7.97;;
14939;SDS011;11825;51.898;8.202;2023-10-19T05:05:27;9.23;;;8.30;;
14939;SDS011;11825;51.898;8.202;2023-10-19T05:10:42;9.90;;;8.70;;
14939;SDS011;11825;51.898;8.202;2023-10-19T05:15:44;10.23;;;8.57;;
14939;SDS011;11825;51.898;8.202;2023-10-19T05:33:56;12.47;;;8.27;;
14939;SDS011;11825;51.898;8.202;2023-10-19T05:39:01;10.50;;;8.70;;
14939;SDS011;11825;51.898;8.202;2023-10-19T05:44:05;9.07;;;8.13;;
14939;SDS011;11825;51.898;8.202;2023-10-19T05:49:07;8.40;;;7.60;;
14939;SDS011;11825;51.898;8.202;2023-10-19T05:54:12;11.13;;;10.02;;
14939;SDS011;11825;51.898;8.202;2023-10-19T05:59:16;11.43;;;9.67;;
14939;SDS011;11825;51.898;8.202;2023-10-19T06:04:31;9.93;;;8.40;;
14939;SDS011;11825;51.898;8.202;2023-10-19T06:09:39;10.80;;;9.20;;
14939;SDS011;11825;51.898;8.202;2023-10-19T06:14:50;9.93;;;8.90;;
14939;SDS011;11825;51.898;8.202;2023-10-19T06:19:55;11.83;;;9.37;;
14939;SDS011;11825;51.898;8.202;2023-10-19T06:25:04;9.30;;;8.27;;
14939;SDS011;11825;51.898;8.202;2023-10-19T06:30:13;12.30;;;11.18;;
14939;SDS011;11825;51.898;8.202;2023-10-19T06:35:22;13.47;;;9.17;;
14939;SDS011;11825;51.898;8.202;2023-10-19T06:40:27;11.10;;;9.67;;
14939;SDS011;11825;51.898;8.202;2023-10-19T06:45:34;13.40;;;10.70;;
14939;SDS011;11825;51.898;8.202;2023-10-19T06:50:49;10.63;;;9.53;;
14939;SDS011;11825;51.898;8.202;2023-10-19T06:55:53;15.85;;;13.05;;
14939;SDS011;11825;51.898;8.202;2023-10-19T07:01:02;13.60;;;12.30;;
14939;SDS011;11825;51.898;8.202;2023-10-19T07:06:10;14.67;;;11.30;;
14939;SDS011;11825;51.898;8.202;2023-10-19T07:11:18;14.50;;;11.53;;
14939;SDS011;11825;51.898;8.202;2023-10-19T07:16:33;13.73;;;11.80;;
14939;SDS011;11825;51.898;8.202;2023-10-19T07:21:41;17.02;;;15.23;;
14939;SDS011;11825;51.898;8.202;2023-10-19T07:26:50;16.37;;;13.80;;
14939;SDS011;11825;51.898;8.202;2023-10-19T07:32:03;15.97;;;12.73;;
14939;SDS011;11825;51.898;8.202;2023-10-19T07:37:08;14.30;;;11.50;;
14939;SDS011;11825;51.898;8.202;2023-10-19T07:42:25;12.47;;;9.47;;
14939;SDS011;11825;51.898;8.202;2023-10-19T07:47:33;10.27;;;9.03;;
14939;SDS011;11825;51.898;8.202;2023-10-19T07:52:52;9.47;;;8.47;;
14939;SDS011;11825;51.898;8.202;2023-10-19T07:57:58;10.13;;;8.40;;
14939;SDS011;11825;51.898;8.202;2023-10-19T08:03:19;11.77;;;9.10;;
14939;SDS011;11825;51.898;8.202;2023-10-19T08:08:26;10.70;;;8.10;;
14939;SDS011;11825;51.898;8.202;2023-10-19T08:13:35;8.90;;;7.80;;
14939;SDS011;11825;51.898;8.202;2023-10-19T08:18:45;8.57;;;7.75;;
14939;SDS011;11825;51.898;8.202;2023-10-19T08:23:52;9.37;;;6.50;;
14939;SDS011;11825;51.898;8.202;2023-10-19T08:29:05;8.40;;;6.40;;
14939;SDS011;11825;51.898;8.202;2023-10-19T08:34:44;6.80;;;5.17;;
14939;SDS011;11825;51.898;8.202;2023-10-19T08:39:48;6.27;;;5.63;;
14939;SDS011;11825;51.898;8.202;2023-10-19T08:45:01;7.93;;;5.30;;
14939;SDS011;11825;51.898;8.202;2023-10-19T08:50:13;6.13;;;4.87;;
14939;SDS011;11825;51.898;8.202;2023-10-19T08:55:21;5.20;;;4.20;;
14939;SDS011;11825;51.898;8.202;2023-10-19T09:00:43;5.90;;;5.33;;
14939;SDS011;11825;51.898;8.202;2023-10-19T09:06:05;6.27;;;4.83;;
14939;SDS011;11825;51.898;8.202;2023-10-19T09:11:16;7.77;;;5.40;;
14939;SDS011;11825;51.898;8.202;2023-10-19T09:16:24;5.97;;;4.43;;
14939;SDS011;11825;51.898;8.202;2023-10-19T09:21:45;8.77;;;5.10;;
14939;SDS011;11825;51.898;8.202;2023-10-19T09:26:53;5.20;;;4.70;;
14939;SDS011;11825;51.898;8.202;2023-10-19T09:32:07;6.03;;;4.23;;
14939;SDS011;11825;51.898;8.202;2023-10-19T09:37:28;4.17;;;3.77;;
14939;SDS011;11825;51.898;8.202;2023-10-19T09:43:08;6.13;;;4.53;;
14939;SDS011;11825;51.898;8.202;2023-10-19T09:48:37;4.17;;;3.77;;
14939;SDS011;11825;51.898;8.202;2023-10-19T09:59:12;8.23;;;4.40;;
14939;SDS011;11825;51.898;8.202;2023-10-19T10:04:48;6.07;;;3.70;;
14939;SDS011;11825;51.898;8.202;2023-10-19T10:10:08;4.67;;;4.00;;
14939;SDS011;11825;51.898;8.202;2023-10-19T10:15:23;4.97;;;4.50;;
14939;SDS011;11825;51.898;8.202;2023-10-19T10:26:31;4.53;;;3.50;;
14939;SDS011;11825;51.898;8.202;2023-10-19T10:31:59;4.43;;;3.13;;
14939;SDS011;11825;51.898;8.202;2023-10-19T10:37:16;4.00;;;3.20;;
14939;SDS011;11825;51.898;8.202;2023-10-19T10:42:25;5.57;;;3.60;;
14939;SDS011;11825;51.898;8.202;2023-10-19T10:53:14;3.67;;;3.37;;
14939;SDS011;11825;51.898;8.202;2023-10-19T10:58:22;10.47;;;3.67;;
14939;SDS011;11825;51.898;8.202;2023-10-19T11:03:27;3.20;;;3.00;;
14939;SDS011;11825;51.898;8.202;2023-10-19T11:08:34;8.07;;;3.80;;
14939;SDS011;11825;51.898;8.202;2023-10-19T11:13:43;3.67;;;3.30;;
14939;SDS011;11825;51.898;8.202;2023-10-19T11:18:53;8.17;;;4.50;;
14939;SDS011;11825;51.898;8.202;2023-10-19T11:24:07;6.17;;;3.07;;
14939;SDS011;11825;51.898;8.202;2023-10-19T11:29:27;3.43;;;3.03;;
14939;SDS011;11825;51.898;8.202;2023-10-19T11:34:41;4.47;;;3.03;;
14939;SDS011;11825;51.898;8.202;2023-10-19T11:39:52;4.37;;;2.53;;
14939;SDS011;11825;51.898;8.202;2023-10-19T11:45:08;3.77;;;2.10;;
14939;SDS011;11825;51.898;8.202;2023-10-19T11:50:27;3.30;;;2.30;;
14939;SDS011;11825;51.898;8.202;2023-10-19T11:55:38;4.67;;;2.97;;
14939;SDS011;11825;51.898;8.202;2023-10-19T12:00:53;2.40;;;2.20;;
14939;SDS011;11825;51.898;8.202;2023-10-19T12:05:57;3.83;;;2.37;;
14939;SDS011;11825;51.898;8.202;2023-10-19T12:11:11;3.93;;;2.50;;
14939;SDS011;11825;51.898;8.202;2023-10-19T12:16:25;5.03;;;2.77;;
14939;SDS011;11825;51.898;8.202;2023-10-19T12:21:32;4.27;;;2.43;;
14939;SDS011;11825;51.898;8.202;2023-10-19T12:26:43;3.13;;;2.83;;
14939;SDS011;11825;51.898;8.202;2023-10-19T12:31:53;4.23;;;2.60;;
14939;SDS011;11825;51.898;8.202;2023-10-19T12:36:57;3.73;;;2.50;;
14939;SDS011;11825;51.898;8.202;2023-10-19T12:42:09;3.93;;;2.30;;
14939;SDS011;11825;51.898;8.202;2023-10-19T12:47:19;3.27;;;2.03;;
14939;SDS011;11825;51.898;8.202;2023-10-19T12:52:26;5.47;;;2.37;;
14939;SDS011;11825;51.898;8.202;2023-10-19T12:57:35;5.53;;;2.83;;
14939;SDS011;11825;51.898;8.202;2023-10-19T13:02:46;6.17;;;2.17;;
14939;SDS011;11825;51.898;8.202;2023-10-19T13:08:25;2.90;;;2.10;;
14939;SDS011;11825;51.898;8.202;2023-10-19T13:13:37;2.20;;;1.77;;
14939;SDS011;11825;51.898;8.202;2023-10-19T13:18:51;6.80;;;2.17;;
14939;SDS011;11825;51.898;8.202;2023-10-19T13:23:55;3.03;;;2.50;;
14939;SDS011;11825;51.898;8.202;2023-10-19T13:29:07;5.97;;;2.50;;
14939;SDS011;11825;51.898;8.202;2023-10-19T13:34:19;3.87;;;3.13;;
14939;SDS011;11825;51.898;8.202;2023-10-19T13:39:36;4.43;;;2.07;;
14939;SDS011;11825;51.898;8.202;2023-10-19T13:44:54;4.00;;;1.97;;
14939;SDS011;11825;51.898;8.202;2023-10-19T13:50:13;3.07;;;1.90;;
14939;SDS011;11825;51.898;8.202;2023-10-19T13:55:30;2.70;;;2.10;;
14939;SDS011;11825;51.898;8.202;2023-10-19T14:00:40;4.33;;;2.80;;
14939;SDS011;11825;51.898;8.202;2023-10-19T14:05:49;4.50;;;2.37;;
14939;SDS011;11825;51.898;8.202;2023-10-19T14:11:00;4.37;;;2.13;;
14939;SDS011;11825;51.898;8.202;2023-10-19T14:16:17;5.77;;;3.17;;
14939;SDS011;11825;51.898;8.202;2023-10-19T14:21:25;4.30;;;2.90;;
14939;SDS011;11825;51.898;8.202;2023-10-19T14:26:44;4.80;;;2.63;;
14939;SDS011;11825;51.898;8.202;2023-10-19T14:31:49;3.27;;;2.97;;
14939;SDS011;11825;51.898;8.202;2023-10-19T14:36:56;3.67;;;2.77;;
14939;SDS011;11825;51.898;8.202;2023-10-19T14:42:08;7.43;;;3.30;;
14939;SDS011;11825;51.898;8.202;2023-10-19T14:47:10;6.50;;;3.40;;
14939;SDS011;11825;51.898;8.202;2023-10-19T14:52:30;5.77;;;3.40;;
14939;SDS011;11825;51.898;8.202;2023-10-19T14:57:40;8.30;;;3.90;;
14939;SDS011;11825;51.898;8.202;2023-10-19T15:02:50;6.03;;;4.13;;
14939;SDS011;11825;51.898;8.202;2023-10-19T15:07:59;7.93;;;3.67;;
14939;SDS011;11825;51.898;8.202;2023-10-19T15:13:01;5.43;;;2.87;;
14939;SDS011;11825;51.898;8.202;2023-10-19T15:18:09;5.07;;;3.33;;
14939;SDS011;11825;51.898;8.202;2023-10-19T15:23:15;3.23;;;2.53;;
14939;SDS011;11825;51.898;8.202;2023-10-19T15:28:20;5.60;;;3.50;;
14939;SDS011;11825;51.898;8.202;2023-10-19T15:33:39;3.40;;;2.97;;
14939;SDS011;11825;51.898;8.202;2023-10-19T15:38:41;7.50;;;3.83;;
14939;SDS011;11825;51.898;8.202;2023-10-19T15:43:45;3.33;;;3.03;;
14939;SDS011;11825;51.898;8.202;2023-10-19T15:55:39;9.53;;;3.60;;
14939;SDS011;11825;51.898;8.202;2023-10-19T16:01:38;7.17;;;4.03;;
14939;SDS011;11825;51.898;8.202;2023-10-19T16:07:11;7.00;;;3.97;;
14939;SDS011;11825;51.898;8.202;2023-10-19T16:51:19;5.03;;;3.40;;
14939;SDS011;11825;51.898;8.202;2023-10-19T16:56:21;5.77;;;4.13;;
14939;SDS011;11825;51.898;8.202;2023-10-19T17:01:23;7.10;;;4.67;;
14939;SDS011;11825;51.898;8.202;2023-10-19T17:06:40;4.50;;;3.70;;
14939;SDS011;11825;51.898;8.202;2023-10-19T17:17:14;5.80;;;4.40;;
14939;SDS011;11825;51.898;8.202;2023-10-19T17:54:02;9.10;;;7.10;;
14939;SDS011;11825;51.898;8.202;2023-10-19T18:11:17;9.25;;;7.55;;
14939;SDS011;11825;51.898;8.202;2023-10-19T18:17:17;8.03;;;6.27;;
14939;SDS011;11825;51.898;8.202;2023-10-19T18:28:49;12.27;;;8.43;;
14939;SDS011;11825;51.898;8.202;2023-10-19T18:40:03;9.77;;;7.97;;
14939;SDS011;11825;51.898;8.202;2023-10-19T18:44:58;9.07;;;8.13;;
14939;SDS011;11825;51.898;8.202;2023-10-19T19:09:38;12.77;;;11.57;;
14939;SDS011;11825;51.898;8.202;2023-10-19T19:14:40;19.93;;;15.67;;
14939;SDS011;11825;51.898;8.202;2023-10-19T19:32:22;13.37;;;12.00;;
14939;SDS011;11825;51.898;8.202;2023-10-19T19:55:47;17.27;;;13.50;;
14939;SDS011;11825;51.898;8.202;2023-10-19T20:11:19;12.47;;;10.67;;
14939;SDS011;11825;51.898;8.202;2023-10-19T20:16:39;14.07;;;10.70;;
14939;SDS011;11825;51.898;8.202;2023-10-19T20:21:50;10.73;;;9.57;;
14939;SDS011;11825;51.898;8.202;2023-10-19T20:26:52;16.40;;;10.63;;
14939;SDS011;11825;51.898;8.202;2023-10-19T20:31:57;13.40;;;10.73;;
14939;SDS011;11825;51.898;8.202;2023-10-19T20:36:58;11.83;;;10.67;;
14939;SDS011;11825;51.898;8.202;2023-10-19T20:42:00;14.03;;;10.77;;
14939;SDS011;11825;51.898;8.202;2023-10-19T20:47:04;11.90;;;9.90;;
14939;SDS011;11825;51.898;8.202;2023-10-19T20:52:08;16.23;;;10.53;;
14939;SDS011;11825;51.898;8.202;2023-10-19T21:18:48;11.27;;;9.90;;
